sensor_id;sensor_type;location;lat;lon;timestamp;P1;durP1;ratioP1;P2;durP2;ratioP2
9485;SDS011;4781;48.776;9.200;2023-02-26T00:04:33;5.92;;;2.35;;
9485;SDS011;4781;48.776;9.200;2023-02-26T00:06:59;4.95;;;2.35;;
9485;SDS011;4781;48.776;9.200;2023-02-26T00:09:29;5.78;;;2.30;;
9485;SDS011;4781;48.776;9.200;2023-02-26T00:12:00;6.20;;;2.15;;
9485;SDS011;4781;48.776;9.200;2023-02-26T00:14:29;5.30;;;2.50;;
9485;SDS011;4781;48.776;9.200;2023-02-26T00:17:14;5.58;;;2.40;;
9485;SDS011;4781;48.776;9.200;2023-02-26T00:19:42;12.45;;;2.70;;
9485;SDS011;4781;48.776;9.200;2023-02-26T00:22:12;7.70;;;2.85;;
9485;SDS011;4781;48.776;9.200;2023-02-26T00:24:41;6.47;;;2.55;;
9485;SDS011;4781;48.776;9.200;2023-02-26T00:27:11;6.15;;;3.05;;
9485;SDS011;4781;48.776;9.200;2023-02-26T00:29:40;4.58;;;2.37;;
9485;SDS011;4781;48.776;9.200;2023-02-26T00:32:08;5.28;;;2.80;;
9485;SDS011;4781;48.776;9.200;2023-02-26T00:34:37;8.40;;;2.75;;
9485;SDS011;4781;48.776;9.200;2023-02-26T00:40:00;8.63;;;2.85;;
9485;SDS011;4781;48.776;9.200;2023-02-26T00:42:31;5.92;;;2.83;;
9485;SDS011;4781;48.776;9.200;2023-02-26T00:45:00;7.58;;;3.02;;
9485;SDS011;4781;48.776;9.200;2023-02-26T00:47:39;9.83;;;2.55;;
9485;SDS011;4781;48.776;9.200;2023-02-26T00:50:22;7.25;;;2.90;;
9485;SDS011;4781;48.776;9.200;2023-02-26T00:52:56;6.42;;;2.60;;
9485;SDS011;4781;48.776;9.200;2023-02-26T00:55:48;5.87;;;2.35;;
9485;SDS011;4781;48.776;9.200;2023-02-26T00:58:17;7.28;;;3.40;;
9485;SDS011;4781;48.776;9.200;2023-02-26T01:00:45;5.97;;;2.40;;
9485;SDS011;4781;48.776;9.200;2023-02-26T01:08:41;7.05;;;2.40;;
9485;SDS011;4781;48.776;9.200;2023-02-26T01:10:57;7.25;;;2.65;;
9485;SDS011;4781;48.776;9.200;2023-02-26T01:13:32;7.67;;;2.58;;
9485;SDS011;4781;48.776;9.200;2023-02-26T01:16:06;5.25;;;2.30;;
9485;SDS011;4781;48.776;9.200;2023-02-26T01:18:55;6.05;;;2.15;;
9485;SDS011;4781;48.776;9.200;2023-02-26T01:21:13;9.35;;;2.77;;
9485;SDS011;4781;48.776;9.200;2023-02-26T01:23:46;9.15;;;2.95;;
9485;SDS011;4781;48.776;9.200;2023-02-26T01:26:18;7.12;;;2.77;;
9485;SDS011;4781;48.776;9.200;2023-02-26T01:28:54;7.45;;;2.70;;
9485;SDS011;4781;48.776;9.200;2023-02-26T01:31:47;6.42;;;2.80;;
9485;SDS011;4781;48.776;9.200;2023-02-26T01:34:34;6.80;;;2.45;;
9485;SDS011;4781;48.776;9.200;2023-02-26T01:42:41;10.05;;;3.30;;
9485;SDS011;4781;48.776;9.200;2023-02-26T01:45:14;5.90;;;2.45;;
9485;SDS011;4781;48.776;9.200;2023-02-26T01:47:55;6.87;;;2.30;;
9485;SDS011;4781;48.776;9.200;2023-02-26T01:50:38;6.25;;;2.50;;
9485;SDS011;4781;48.776;9.200;2023-02-26T01:53:18;5.83;;;2.30;;
9485;SDS011;4781;48.776;9.200;2023-02-26T01:55:56;6.85;;;2.58;;
9485;SDS011;4781;48.776;9.200;2023-02-26T01:58:32;6.47;;;2.50;;
9485;SDS011;4781;48.776;9.200;2023-02-26T02:01:02;7.55;;;2.67;;
9485;SDS011;4781;48.776;9.200;2023-02-26T02:03:33;5.83;;;2.80;;
9485;SDS011;4781;48.776;9.200;2023-02-26T02:08:45;5.90;;;2.83;;
9485;SDS011;4781;48.776;9.200;2023-02-26T02:11:14;4.92;;;2.60;;
9485;SDS011;4781;48.776;9.200;2023-02-26T02:16:52;8.00;;;2.60;;
9485;SDS011;4781;48.776;9.200;2023-02-26T02:19:41;7.30;;;2.40;;
9485;SDS011;4781;48.776;9.200;2023-02-26T02:22:34;7.28;;;2.87;;
9485;SDS011;4781;48.776;9.200;2023-02-26T02:25:34;6.35;;;2.67;;
9485;SDS011;4781;48.776;9.200;2023-02-26T02:31:27;6.85;;;2.10;;
9485;SDS011;4781;48.776;9.200;2023-02-26T02:34:18;7.10;;;3.00;;
9485;SDS011;4781;48.776;9.200;2023-02-26T02:37:11;7.10;;;2.65;;
9485;SDS011;4781;48.776;9.200;2023-02-26T02:39:57;7.40;;;2.40;;
9485;SDS011;4781;48.776;9.200;2023-02-26T02:45:24;9.08;;;2.60;;
9485;SDS011;4781;48.776;9.200;2023-02-26T02:48:12;5.00;;;2.35;;
9485;SDS011;4781;48.776;9.200;2023-02-26T02:50:49;7.00;;;2.75;;
9485;SDS011;4781;48.776;9.200;2023-02-26T02:53:29;5.70;;;2.37;;
9485;SDS011;4781;48.776;9.200;2023-02-26T02:56:08;8.50;;;2.60;;
9485;SDS011;4781;48.776;9.200;2023-02-26T02:58:49;4.95;;;2.33;;
9485;SDS011;4781;48.776;9.200;2023-02-26T03:01:21;7.25;;;2.33;;
9485;SDS011;4781;48.776;9.200;2023-02-26T03:03:56;5.05;;;2.27;;
9485;SDS011;4781;48.776;9.200;2023-02-26T03:06:34;5.33;;;2.27;;
9485;SDS011;4781;48.776;9.200;2023-02-26T03:09:03;5.30;;;2.80;;
9485;SDS011;4781;48.776;9.200;2023-02-26T03:11:34;5.28;;;1.95;;
9485;SDS011;4781;48.776;9.200;2023-02-26T03:14:04;6.05;;;2.58;;
9485;SDS011;4781;48.776;9.200;2023-02-26T03:25:50;11.75;;;2.65;;
9485;SDS011;4781;48.776;9.200;2023-02-26T03:28:43;9.45;;;3.08;;
9485;SDS011;4781;48.776;9.200;2023-02-26T03:31:14;9.08;;;2.70;;
9485;SDS011;4781;48.776;9.200;2023-02-26T03:39:30;7.22;;;2.60;;
9485;SDS011;4781;48.776;9.200;2023-02-26T03:42:05;5.37;;;2.27;;
9485;SDS011;4781;48.776;9.200;2023-02-26T03:44:53;5.90;;;2.33;;
9485;SDS011;4781;48.776;9.200;2023-02-26T03:47:48;6.03;;;2.35;;
9485;SDS011;4781;48.776;9.200;2023-02-26T03:50:42;5.95;;;2.02;;
9485;SDS011;4781;48.776;9.200;2023-02-26T03:53:14;7.03;;;2.30;;
9485;SDS011;4781;48.776;9.200;2023-02-26T03:55:56;8.98;;;3.42;;
9485;SDS011;4781;48.776;9.200;2023-02-26T03:58:47;7.78;;;2.55;;
9485;SDS011;4781;48.776;9.200;2023-02-26T04:01:22;8.10;;;2.52;;
9485;SDS011;4781;48.776;9.200;2023-02-26T04:03:56;4.70;;;2.00;;
9485;SDS011;4781;48.776;9.200;2023-02-26T04:06:32;8.10;;;2.70;;
9485;SDS011;4781;48.776;9.200;2023-02-26T04:09:02;7.47;;;2.67;;
9485;SDS011;4781;48.776;9.200;2023-02-26T04:11:33;5.95;;;2.50;;
9485;SDS011;4781;48.776;9.200;2023-02-26T04:14:06;7.72;;;2.60;;
9485;SDS011;4781;48.776;9.200;2023-02-26T04:16:34;7.22;;;2.50;;
9485;SDS011;4781;48.776;9.200;2023-02-26T04:19:04;8.23;;;2.47;;
9485;SDS011;4781;48.776;9.200;2023-02-26T04:21:33;4.65;;;2.42;;
9485;SDS011;4781;48.776;9.200;2023-02-26T04:24:01;5.25;;;2.60;;
9485;SDS011;4781;48.776;9.200;2023-02-26T04:26:30;5.92;;;2.33;;
9485;SDS011;4781;48.776;9.200;2023-02-26T04:29:01;6.12;;;2.55;;
9485;SDS011;4781;48.776;9.200;2023-02-26T04:31:28;5.75;;;2.60;;
9485;SDS011;4781;48.776;9.200;2023-02-26T04:33:57;8.25;;;2.80;;
9485;SDS011;4781;48.776;9.200;2023-02-26T04:36:25;6.47;;;2.40;;
9485;SDS011;4781;48.776;9.200;2023-02-26T04:38:54;8.23;;;2.90;;
9485;SDS011;4781;48.776;9.200;2023-02-26T04:41:22;6.05;;;2.60;;
9485;SDS011;4781;48.776;9.200;2023-02-26T04:43:51;5.12;;;2.60;;
9485;SDS011;4781;48.776;9.200;2023-02-26T04:46:22;8.38;;;2.60;;
9485;SDS011;4781;48.776;9.200;2023-02-26T04:48:49;8.23;;;3.10;;
9485;SDS011;4781;48.776;9.200;2023-02-26T04:51:17;9.20;;;3.25;;
9485;SDS011;4781;48.776;9.200;2023-02-26T04:53:47;9.03;;;3.15;;
9485;SDS011;4781;48.776;9.200;2023-02-26T04:56:16;7.03;;;2.50;;
9485;SDS011;4781;48.776;9.200;2023-02-26T04:58:44;8.08;;;3.10;;
9485;SDS011;4781;48.776;9.200;2023-02-26T05:01:13;5.95;;;2.35;;
9485;SDS011;4781;48.776;9.200;2023-02-26T05:03:47;11.85;;;3.12;;
9485;SDS011;4781;48.776;9.200;2023-02-26T05:06:11;6.00;;;2.85;;
9485;SDS011;4781;48.776;9.200;2023-02-26T05:08:40;6.20;;;3.10;;
9485;SDS011;4781;48.776;9.200;2023-02-26T05:11:09;5.65;;;2.47;;
9485;SDS011;4781;48.776;9.200;2023-02-26T05:13:38;8.30;;;2.67;;
9485;SDS011;4781;48.776;9.200;2023-02-26T05:16:07;5.37;;;2.87;;
9485;SDS011;4781;48.776;9.200;2023-02-26T05:18:35;6.33;;;2.70;;
9485;SDS011;4781;48.776;9.200;2023-02-26T05:21:04;7.47;;;2.72;;
9485;SDS011;4781;48.776;9.200;2023-02-26T05:23:34;5.50;;;2.33;;
9485;SDS011;4781;48.776;9.200;2023-02-26T05:26:02;6.53;;;2.77;;
9485;SDS011;4781;48.776;9.200;2023-02-26T05:28:31;7.37;;;2.70;;
9485;SDS011;4781;48.776;9.200;2023-02-26T05:30:59;6.12;;;2.27;;
9485;SDS011;4781;48.776;9.200;2023-02-26T05:33:33;5.45;;;2.50;;
9485;SDS011;4781;48.776;9.200;2023-02-26T05:35:57;6.72;;;2.98;;
9485;SDS011;4781;48.776;9.200;2023-02-26T05:38:26;5.90;;;2.77;;
9485;SDS011;4781;48.776;9.200;2023-02-26T05:40:57;6.42;;;2.52;;
9485;SDS011;4781;48.776;9.200;2023-02-26T05:43:26;5.35;;;2.42;;
9485;SDS011;4781;48.776;9.200;2023-02-26T05:45:54;5.83;;;2.65;;
9485;SDS011;4781;48.776;9.200;2023-02-26T05:48:23;7.90;;;2.70;;
9485;SDS011;4781;48.776;9.200;2023-02-26T05:50:51;6.45;;;2.50;;
9485;SDS011;4781;48.776;9.200;2023-02-26T05:53:20;4.83;;;2.65;;
9485;SDS011;4781;48.776;9.200;2023-02-26T05:55:48;5.53;;;2.40;;
9485;SDS011;4781;48.776;9.200;2023-02-26T05:58:18;8.30;;;3.10;;
9485;SDS011;4781;48.776;9.200;2023-02-26T06:00:47;9.60;;;2.65;;
9485;SDS011;4781;48.776;9.200;2023-02-26T06:03:15;7.62;;;2.58;;
9485;SDS011;4781;48.776;9.200;2023-02-26T06:05:51;9.30;;;2.83;;
9485;SDS011;4781;48.776;9.200;2023-02-26T06:08:17;9.70;;;3.08;;
9485;SDS011;4781;48.776;9.200;2023-02-26T06:10:45;6.72;;;2.60;;
9485;SDS011;4781;48.776;9.200;2023-02-26T06:13:14;9.55;;;2.35;;
9485;SDS011;4781;48.776;9.200;2023-02-26T06:15:42;7.92;;;2.90;;
9485;SDS011;4781;48.776;9.200;2023-02-26T06:18:11;7.33;;;2.72;;
9485;SDS011;4781;48.776;9.200;2023-02-26T06:20:39;5.03;;;2.37;;
9485;SDS011;4781;48.776;9.200;2023-02-26T06:23:07;5.33;;;2.30;;
9485;SDS011;4781;48.776;9.200;2023-02-26T06:25:36;5.03;;;2.42;;
9485;SDS011;4781;48.776;9.200;2023-02-26T06:28:04;5.90;;;2.60;;
9485;SDS011;4781;48.776;9.200;2023-02-26T06:30:33;9.88;;;2.98;;
9485;SDS011;4781;48.776;9.200;2023-02-26T06:33:01;8.85;;;2.75;;
9485;SDS011;4781;48.776;9.200;2023-02-26T06:35:30;5.40;;;2.30;;
9485;SDS011;4781;48.776;9.200;2023-02-26T06:37:58;7.72;;;2.30;;
9485;SDS011;4781;48.776;9.200;2023-02-26T06:40:31;8.15;;;3.45;;
9485;SDS011;4781;48.776;9.200;2023-02-26T06:42:59;6.83;;;2.75;;
9485;SDS011;4781;48.776;9.200;2023-02-26T06:45:28;7.22;;;2.70;;
9485;SDS011;4781;48.776;9.200;2023-02-26T06:47:56;7.17;;;2.67;;
9485;SDS011;4781;48.776;9.200;2023-02-26T06:50:25;8.98;;;2.60;;
9485;SDS011;4781;48.776;9.200;2023-02-26T06:52:53;7.20;;;2.47;;
9485;SDS011;4781;48.776;9.200;2023-02-26T06:55:22;8.08;;;2.58;;
9485;SDS011;4781;48.776;9.200;2023-02-26T06:57:53;7.42;;;2.45;;
9485;SDS011;4781;48.776;9.200;2023-02-26T07:00:23;7.43;;;2.63;;
9485;SDS011;4781;48.776;9.200;2023-02-26T07:02:52;5.70;;;2.70;;
9485;SDS011;4781;48.776;9.200;2023-02-26T07:05:20;8.13;;;3.00;;
9485;SDS011;4781;48.776;9.200;2023-02-26T07:07:49;5.50;;;2.37;;
9485;SDS011;4781;48.776;9.200;2023-02-26T07:10:17;11.15;;;2.65;;
9485;SDS011;4781;48.776;9.200;2023-02-26T07:12:46;6.42;;;2.42;;
9485;SDS011;4781;48.776;9.200;2023-02-26T07:15:14;5.37;;;2.52;;
9485;SDS011;4781;48.776;9.200;2023-02-26T07:17:46;6.85;;;2.70;;
9485;SDS011;4781;48.776;9.200;2023-02-26T07:20:15;8.68;;;3.00;;
9485;SDS011;4781;48.776;9.200;2023-02-26T07:22:45;6.47;;;2.72;;
9485;SDS011;4781;48.776;9.200;2023-02-26T07:25:13;7.22;;;2.72;;
9485;SDS011;4781;48.776;9.200;2023-02-26T07:27:42;7.30;;;2.45;;
9485;SDS011;4781;48.776;9.200;2023-02-26T07:30:11;6.50;;;2.60;;
9485;SDS011;4781;48.776;9.200;2023-02-26T07:32:40;5.10;;;2.83;;
9485;SDS011;4781;48.776;9.200;2023-02-26T07:35:09;8.25;;;2.58;;
9485;SDS011;4781;48.776;9.200;2023-02-26T07:37:37;6.50;;;2.10;;
9485;SDS011;4781;48.776;9.200;2023-02-26T07:40:06;6.20;;;2.47;;
9485;SDS011;4781;48.776;9.200;2023-02-26T07:42:35;6.50;;;2.60;;
9485;SDS011;4781;48.776;9.200;2023-02-26T07:45:04;8.00;;;2.67;;
9485;SDS011;4781;48.776;9.200;2023-02-26T07:47:33;7.00;;;2.52;;
9485;SDS011;4781;48.776;9.200;2023-02-26T07:50:01;6.05;;;2.40;;
9485;SDS011;4781;48.776;9.200;2023-02-26T07:52:30;6.33;;;2.90;;
9485;SDS011;4781;48.776;9.200;2023-02-26T07:54:58;6.83;;;2.45;;
9485;SDS011;4781;48.776;9.200;2023-02-26T07:57:27;5.58;;;2.55;;
9485;SDS011;4781;48.776;9.200;2023-02-26T07:59:55;8.98;;;2.40;;
9485;SDS011;4781;48.776;9.200;2023-02-26T08:02:23;11.12;;;2.45;;
9485;SDS011;4781;48.776;9.200;2023-02-26T08:04:52;6.55;;;2.42;;
9485;SDS011;4781;48.776;9.200;2023-02-26T08:07:20;5.25;;;2.15;;
9485;SDS011;4781;48.776;9.200;2023-02-26T08:09:49;7.35;;;2.40;;
9485;SDS011;4781;48.776;9.200;2023-02-26T08:12:17;6.25;;;2.30;;
9485;SDS011;4781;48.776;9.200;2023-02-26T08:14:45;5.37;;;2.22;;
9485;SDS011;4781;48.776;9.200;2023-02-26T08:17:14;8.45;;;2.50;;
9485;SDS011;4781;48.776;9.200;2023-02-26T08:19:43;6.55;;;2.30;;
9485;SDS011;4781;48.776;9.200;2023-02-26T08:22:14;7.12;;;2.70;;
9485;SDS011;4781;48.776;9.200;2023-02-26T08:24:44;7.62;;;2.60;;
9485;SDS011;4781;48.776;9.200;2023-02-26T08:27:12;4.60;;;2.30;;
9485;SDS011;4781;48.776;9.200;2023-02-26T08:29:45;8.10;;;2.62;;
9485;SDS011;4781;48.776;9.200;2023-02-26T08:32:15;5.25;;;2.12;;
9485;SDS011;4781;48.776;9.200;2023-02-26T08:34:47;8.00;;;2.50;;
9485;SDS011;4781;48.776;9.200;2023-02-26T08:37:16;6.60;;;2.50;;
9485;SDS011;4781;48.776;9.200;2023-02-26T08:39:46;5.80;;;2.17;;
9485;SDS011;4781;48.776;9.200;2023-02-26T08:42:14;5.37;;;2.37;;
9485;SDS011;4781;48.776;9.200;2023-02-26T08:44:45;5.95;;;2.45;;
9485;SDS011;4781;48.776;9.200;2023-02-26T08:47:13;7.17;;;2.25;;
9485;SDS011;4781;48.776;9.200;2023-02-26T08:49:42;6.15;;;2.42;;
9485;SDS011;4781;48.776;9.200;2023-02-26T08:52:10;7.45;;;2.25;;
9485;SDS011;4781;48.776;9.200;2023-02-26T08:54:39;11.03;;;2.58;;
9485;SDS011;4781;48.776;9.200;2023-02-26T08:57:07;5.15;;;2.35;;
9485;SDS011;4781;48.776;9.200;2023-02-26T08:59:38;7.25;;;2.52;;
9485;SDS011;4781;48.776;9.200;2023-02-26T09:02:08;5.28;;;2.27;;
9485;SDS011;4781;48.776;9.200;2023-02-26T09:04:41;7.10;;;2.37;;
9485;SDS011;4781;48.776;9.200;2023-02-26T09:07:12;5.85;;;2.20;;
9485;SDS011;4781;48.776;9.200;2023-02-26T09:09:46;6.90;;;2.25;;
9485;SDS011;4781;48.776;9.200;2023-02-26T09:12:13;4.45;;;2.25;;
9485;SDS011;4781;48.776;9.200;2023-02-26T09:14:41;6.00;;;2.27;;
9485;SDS011;4781;48.776;9.200;2023-02-26T09:17:10;4.97;;;2.30;;
9485;SDS011;4781;48.776;9.200;2023-02-26T09:19:38;6.90;;;2.45;;
9485;SDS011;4781;48.776;9.200;2023-02-26T09:22:07;9.33;;;3.05;;
9485;SDS011;4781;48.776;9.200;2023-02-26T09:24:36;8.65;;;2.80;;
9485;SDS011;4781;48.776;9.200;2023-02-26T09:27:04;9.43;;;3.65;;
9485;SDS011;4781;48.776;9.200;2023-02-26T09:29:32;5.65;;;2.65;;
9485;SDS011;4781;48.776;9.200;2023-02-26T09:32:01;8.00;;;2.70;;
9485;SDS011;4781;48.776;9.200;2023-02-26T09:34:31;7.70;;;2.58;;
9485;SDS011;4781;48.776;9.200;2023-02-26T09:37:03;6.67;;;2.87;;
9485;SDS011;4781;48.776;9.200;2023-02-26T09:39:34;4.20;;;2.15;;
9485;SDS011;4781;48.776;9.200;2023-02-26T09:44:53;5.15;;;1.90;;
9485;SDS011;4781;48.776;9.200;2023-02-26T09:47:26;6.45;;;2.33;;
9485;SDS011;4781;48.776;9.200;2023-02-26T09:50:00;4.53;;;1.87;;
9485;SDS011;4781;48.776;9.200;2023-02-26T09:52:46;6.35;;;2.17;;
9485;SDS011;4781;48.776;9.200;2023-02-26T09:55:18;9.28;;;2.45;;
9485;SDS011;4781;48.776;9.200;2023-02-26T09:58:08;5.45;;;1.80;;
9485;SDS011;4781;48.776;9.200;2023-02-26T10:03:51;3.47;;;1.77;;
9485;SDS011;4781;48.776;9.200;2023-02-26T10:06:26;5.85;;;2.20;;
9485;SDS011;4781;48.776;9.200;2023-02-26T10:09:15;5.83;;;2.40;;
9485;SDS011;4781;48.776;9.200;2023-02-26T10:12:11;12.70;;;6.40;;
9485;SDS011;4781;48.776;9.200;2023-02-26T10:14:49;6.53;;;2.58;;
9485;SDS011;4781;48.776;9.200;2023-02-26T10:17:51;9.83;;;3.62;;
9485;SDS011;4781;48.776;9.200;2023-02-26T10:23:40;4.03;;;2.45;;
9485;SDS011;4781;48.776;9.200;2023-02-26T10:26:20;5.83;;;2.47;;
9485;SDS011;4781;48.776;9.200;2023-02-26T10:29:13;6.05;;;1.90;;
9485;SDS011;4781;48.776;9.200;2023-02-26T10:35:08;5.05;;;1.82;;
9485;SDS011;4781;48.776;9.200;2023-02-26T10:37:45;4.80;;;1.67;;
9485;SDS011;4781;48.776;9.200;2023-02-26T10:40:36;5.22;;;1.75;;
9485;SDS011;4781;48.776;9.200;2023-02-26T10:43:21;6.45;;;1.90;;
9485;SDS011;4781;48.776;9.200;2023-02-26T10:51:49;3.60;;;1.65;;
9485;SDS011;4781;48.776;9.200;2023-02-26T10:54:30;5.42;;;2.00;;
9485;SDS011;4781;48.776;9.200;2023-02-26T10:57:04;4.55;;;2.20;;
9485;SDS011;4781;48.776;9.200;2023-02-26T10:59:37;5.58;;;2.05;;
9485;SDS011;4781;48.776;9.200;2023-02-26T11:02:11;5.37;;;2.02;;
9485;SDS011;4781;48.776;9.200;2023-02-26T11:04:44;5.58;;;1.98;;
9485;SDS011;4781;48.776;9.200;2023-02-26T11:07:13;7.45;;;2.17;;
9485;SDS011;4781;48.776;9.200;2023-02-26T11:09:42;5.58;;;1.87;;
9485;SDS011;4781;48.776;9.200;2023-02-26T11:12:13;7.10;;;3.22;;
9485;SDS011;4781;48.776;9.200;2023-02-26T11:14:44;5.37;;;1.92;;
9485;SDS011;4781;48.776;9.200;2023-02-26T11:17:19;4.67;;;2.00;;
9485;SDS011;4781;48.776;9.200;2023-02-26T11:20:01;3.75;;;1.80;;
9485;SDS011;4781;48.776;9.200;2023-02-26T11:22:35;4.03;;;2.00;;
9485;SDS011;4781;48.776;9.200;2023-02-26T11:25:05;7.25;;;4.03;;
9485;SDS011;4781;48.776;9.200;2023-02-26T11:27:39;6.92;;;3.75;;
9485;SDS011;4781;48.776;9.200;2023-02-26T11:30:14;6.80;;;3.50;;
9485;SDS011;4781;48.776;9.200;2023-02-26T11:32:52;4.78;;;2.10;;
9485;SDS011;4781;48.776;9.200;2023-02-26T11:35:21;3.45;;;1.77;;
9485;SDS011;4781;48.776;9.200;2023-02-26T11:37:56;5.25;;;1.47;;
9485;SDS011;4781;48.776;9.200;2023-02-26T11:40:32;3.30;;;1.40;;
9485;SDS011;4781;48.776;9.200;2023-02-26T11:43:10;3.10;;;1.55;;
9485;SDS011;4781;48.776;9.200;2023-02-26T11:45:44;3.22;;;1.62;;
9485;SDS011;4781;48.776;9.200;2023-02-26T11:48:19;9.95;;;1.62;;
9485;SDS011;4781;48.776;9.200;2023-02-26T11:50:51;4.12;;;1.80;;
9485;SDS011;4781;48.776;9.200;2023-02-26T11:53:31;2.45;;;1.40;;
9485;SDS011;4781;48.776;9.200;2023-02-26T11:56:12;4.28;;;1.47;;
9485;SDS011;4781;48.776;9.200;2023-02-26T11:59:01;5.15;;;1.50;;
9485;SDS011;4781;48.776;9.200;2023-02-26T12:01:46;4.08;;;1.70;;
9485;SDS011;4781;48.776;9.200;2023-02-26T12:04:24;3.33;;;1.52;;
9485;SDS011;4781;48.776;9.200;2023-02-26T12:06:52;3.08;;;1.65;;
9485;SDS011;4781;48.776;9.200;2023-02-26T12:09:22;5.30;;;1.70;;
9485;SDS011;4781;48.776;9.200;2023-02-26T12:11:59;3.20;;;1.60;;
9485;SDS011;4781;48.776;9.200;2023-02-26T12:15:01;3.72;;;1.70;;
9485;SDS011;4781;48.776;9.200;2023-02-26T12:24:01;4.17;;;1.60;;
9485;SDS011;4781;48.776;9.200;2023-02-26T12:26:53;3.15;;;1.60;;
9485;SDS011;4781;48.776;9.200;2023-02-26T12:32:40;2.85;;;1.40;;
9485;SDS011;4781;48.776;9.200;2023-02-26T12:35:19;2.80;;;1.52;;
9485;SDS011;4781;48.776;9.200;2023-02-26T12:38:14;3.37;;;1.52;;
9485;SDS011;4781;48.776;9.200;2023-02-26T12:40:52;4.10;;;1.75;;
9485;SDS011;4781;48.776;9.200;2023-02-26T12:43:38;3.62;;;1.70;;
9485;SDS011;4781;48.776;9.200;2023-02-26T12:52:12;3.27;;;1.50;;
9485;SDS011;4781;48.776;9.200;2023-02-26T12:55:02;4.42;;;2.02;;
9485;SDS011;4781;48.776;9.200;2023-02-26T13:00:53;3.72;;;1.67;;
9485;SDS011;4781;48.776;9.200;2023-02-26T13:06:25;4.62;;;2.05;;
9485;SDS011;4781;48.776;9.200;2023-02-26T13:12:26;3.83;;;1.50;;
9485;SDS011;4781;48.776;9.200;2023-02-26T13:18:10;3.42;;;1.50;;
9485;SDS011;4781;48.776;9.200;2023-02-26T13:20:54;2.50;;;1.50;;
9485;SDS011;4781;48.776;9.200;2023-02-26T13:23:59;2.75;;;1.27;;
9485;SDS011;4781;48.776;9.200;2023-02-26T13:26:17;2.98;;;1.40;;
9485;SDS011;4781;48.776;9.200;2023-02-26T13:28:53;3.20;;;1.52;;
9485;SDS011;4781;48.776;9.200;2023-02-26T13:31:31;3.22;;;1.52;;
9485;SDS011;4781;48.776;9.200;2023-02-26T13:34:25;2.75;;;1.62;;
9485;SDS011;4781;48.776;9.200;2023-02-26T13:37:30;3.10;;;1.45;;
9485;SDS011;4781;48.776;9.200;2023-02-26T13:49:12;2.15;;;1.30;;
9485;SDS011;4781;48.776;9.200;2023-02-26T13:52:21;2.65;;;1.20;;
9485;SDS011;4781;48.776;9.200;2023-02-26T13:54:52;3.58;;;1.40;;
9485;SDS011;4781;48.776;9.200;2023-02-26T14:00:32;2.47;;;1.20;;
9485;SDS011;4781;48.776;9.200;2023-02-26T14:03:11;3.92;;;1.30;;
9485;SDS011;4781;48.776;9.200;2023-02-26T14:05:54;2.72;;;1.30;;
9485;SDS011;4781;48.776;9.200;2023-02-26T14:08:43;2.85;;;1.32;;
9485;SDS011;4781;48.776;9.200;2023-02-26T14:22:27;5.42;;;1.70;;
9485;SDS011;4781;48.776;9.200;2023-02-26T14:27:41;4.62;;;1.40;;
9485;SDS011;4781;48.776;9.200;2023-02-26T14:35:40;3.55;;;2.00;;
9485;SDS011;4781;48.776;9.200;2023-02-26T14:38:12;2.27;;;1.15;;
9485;SDS011;4781;48.776;9.200;2023-02-26T14:41:04;2.72;;;1.35;;
9485;SDS011;4781;48.776;9.200;2023-02-26T14:43:53;2.47;;;1.22;;
9485;SDS011;4781;48.776;9.200;2023-02-26T14:46:41;3.52;;;1.80;;
9485;SDS011;4781;48.776;9.200;2023-02-26T14:49:14;2.20;;;1.10;;
9485;SDS011;4781;48.776;9.200;2023-02-26T14:55:07;2.25;;;1.07;;
9485;SDS011;4781;48.776;9.200;2023-02-26T15:03:18;3.87;;;1.20;;
9485;SDS011;4781;48.776;9.200;2023-02-26T15:09:39;2.22;;;1.05;;
9485;SDS011;4781;48.776;9.200;2023-02-26T15:18:12;6.85;;;1.90;;
9485;SDS011;4781;48.776;9.200;2023-02-26T15:23:42;3.02;;;1.20;;
9485;SDS011;4781;48.776;9.200;2023-02-26T15:26:23;3.35;;;1.20;;
9485;SDS011;4781;48.776;9.200;2023-02-26T15:28:58;2.95;;;1.40;;
9485;SDS011;4781;48.776;9.200;2023-02-26T15:31:36;2.33;;;1.20;;
9485;SDS011;4781;48.776;9.200;2023-02-26T15:34:03;3.47;;;1.17;;
9485;SDS011;4781;48.776;9.200;2023-02-26T15:36:31;2.92;;;1.40;;
9485;SDS011;4781;48.776;9.200;2023-02-26T15:39:00;3.08;;;1.32;;
9485;SDS011;4781;48.776;9.200;2023-02-26T15:41:31;5.65;;;1.50;;
9485;SDS011;4781;48.776;9.200;2023-02-26T15:44:04;3.27;;;1.22;;
9485;SDS011;4781;48.776;9.200;2023-02-26T15:46:41;4.00;;;1.60;;
9485;SDS011;4781;48.776;9.200;2023-02-26T15:49:12;8.65;;;4.03;;
9485;SDS011;4781;48.776;9.200;2023-02-26T15:51:53;6.17;;;2.33;;
9485;SDS011;4781;48.776;9.200;2023-02-26T15:54:24;8.45;;;3.10;;
9485;SDS011;4781;48.776;9.200;2023-02-26T15:57:00;6.47;;;3.08;;
9485;SDS011;4781;48.776;9.200;2023-02-26T15:59:30;13.70;;;6.00;;
9485;SDS011;4781;48.776;9.200;2023-02-26T16:02:02;8.13;;;3.90;;
9485;SDS011;4781;48.776;9.200;2023-02-26T16:04:33;6.30;;;2.20;;
9485;SDS011;4781;48.776;9.200;2023-02-26T16:07:02;3.45;;;1.32;;
9485;SDS011;4781;48.776;9.200;2023-02-26T16:09:34;2.27;;;1.10;;
9485;SDS011;4781;48.776;9.200;2023-02-26T16:12:10;3.12;;;1.17;;
9485;SDS011;4781;48.776;9.200;2023-02-26T16:14:47;2.65;;;1.10;;
9485;SDS011;4781;48.776;9.200;2023-02-26T16:17:25;2.50;;;1.30;;
9485;SDS011;4781;48.776;9.200;2023-02-26T16:20:04;2.47;;;1.25;;
9485;SDS011;4781;48.776;9.200;2023-02-26T16:22:37;3.17;;;1.30;;
9485;SDS011;4781;48.776;9.200;2023-02-26T16:25:18;3.95;;;1.30;;
9485;SDS011;4781;48.776;9.200;2023-02-26T16:28:04;2.67;;;1.40;;
9485;SDS011;4781;48.776;9.200;2023-02-26T16:30:38;3.00;;;1.27;;
9485;SDS011;4781;48.776;9.200;2023-02-26T16:33:11;3.75;;;1.30;;
9485;SDS011;4781;48.776;9.200;2023-02-26T16:35:44;4.08;;;1.30;;
9485;SDS011;4781;48.776;9.200;2023-02-26T16:38:44;3.08;;;1.10;;
9485;SDS011;4781;48.776;9.200;2023-02-26T16:41:15;4.10;;;1.50;;
9485;SDS011;4781;48.776;9.200;2023-02-26T16:46:27;2.45;;;1.00;;
9485;SDS011;4781;48.776;9.200;2023-02-26T16:49:21;3.60;;;1.12;;
9485;SDS011;4781;48.776;9.200;2023-02-26T16:51:53;3.62;;;1.20;;
9485;SDS011;4781;48.776;9.200;2023-02-26T16:54:27;2.92;;;1.05;;
9485;SDS011;4781;48.776;9.200;2023-02-26T16:59:46;2.00;;;1.02;;
9485;SDS011;4781;48.776;9.200;2023-02-26T17:02:27;9.35;;;3.85;;
9485;SDS011;4781;48.776;9.200;2023-02-26T17:04:53;11.90;;;5.67;;
9485;SDS011;4781;48.776;9.200;2023-02-26T17:07:26;11.80;;;6.12;;
9485;SDS011;4781;48.776;9.200;2023-02-26T17:10:08;6.95;;;3.17;;
9485;SDS011;4781;48.776;9.200;2023-02-26T17:12:44;3.05;;;1.35;;
9485;SDS011;4781;48.776;9.200;2023-02-26T17:15:29;3.05;;;1.20;;
9485;SDS011;4781;48.776;9.200;2023-02-26T17:18:01;2.65;;;1.27;;
9485;SDS011;4781;48.776;9.200;2023-02-26T17:20:30;2.87;;;1.37;;
9485;SDS011;4781;48.776;9.200;2023-02-26T17:23:00;3.00;;;1.50;;
9485;SDS011;4781;48.776;9.200;2023-02-26T17:25:35;3.98;;;1.50;;
9485;SDS011;4781;48.776;9.200;2023-02-26T17:28:11;4.40;;;1.72;;
9485;SDS011;4781;48.776;9.200;2023-02-26T17:30:45;2.72;;;1.02;;
9485;SDS011;4781;48.776;9.200;2023-02-26T17:33:13;1.67;;;0.98;;
9485;SDS011;4781;48.776;9.200;2023-02-26T17:35:43;5.83;;;1.60;;
9485;SDS011;4781;48.776;9.200;2023-02-26T17:38:12;3.00;;;1.10;;
9485;SDS011;4781;48.776;9.200;2023-02-26T17:40:43;3.40;;;1.30;;
9485;SDS011;4781;48.776;9.200;2023-02-26T17:43:17;2.67;;;1.60;;
9485;SDS011;4781;48.776;9.200;2023-02-26T17:45:45;3.75;;;1.57;;
9485;SDS011;4781;48.776;9.200;2023-02-26T17:48:14;9.75;;;2.83;;
9485;SDS011;4781;48.776;9.200;2023-02-26T17:53:16;4.42;;;1.55;;
9485;SDS011;4781;48.776;9.200;2023-02-26T17:55:47;4.10;;;1.77;;
9485;SDS011;4781;48.776;9.200;2023-02-26T18:00:59;4.10;;;1.98;;
9485;SDS011;4781;48.776;9.200;2023-02-26T18:03:29;3.80;;;1.60;;
9485;SDS011;4781;48.776;9.200;2023-02-26T18:05:58;6.12;;;1.67;;
9485;SDS011;4781;48.776;9.200;2023-02-26T18:08:31;3.95;;;2.00;;
9485;SDS011;4781;48.776;9.200;2023-02-26T18:11:00;4.47;;;1.87;;
9485;SDS011;4781;48.776;9.200;2023-02-26T18:13:29;4.55;;;1.90;;
9485;SDS011;4781;48.776;9.200;2023-02-26T18:15:58;4.33;;;1.90;;
9485;SDS011;4781;48.776;9.200;2023-02-26T18:18:27;2.72;;;1.40;;
9485;SDS011;4781;48.776;9.200;2023-02-26T18:20:58;3.30;;;1.42;;
9485;SDS011;4781;48.776;9.200;2023-02-26T18:23:27;3.83;;;1.32;;
9485;SDS011;4781;48.776;9.200;2023-02-26T18:25:56;4.87;;;1.50;;
9485;SDS011;4781;48.776;9.200;2023-02-26T18:28:25;3.35;;;1.30;;
9485;SDS011;4781;48.776;9.200;2023-02-26T18:30:54;5.75;;;1.70;;